Time,TemperatureF,DewpointF,PressureIn,WindDirection,WindDirectionDegrees,WindSpeedMPH,WindSpeedGustMPH,Humidity,HourlyPrecipIn,Conditions,Clouds,dailyrainin,SoftwareType,DateUTC
2013-03-09 00:01:00,32.0,32.0,-100.00,WSW,240,2.0,2.0,99,0.00,,,-99.99,,2013-03-09 07:01:00,
2013-03-09 00:11:00,32.0,32.0,-100.00,WSW,244,2.0,2.0,99,0.00,,,-99.99,,2013-03-09 07:11:00,
2013-03-09 00:21:00,32.0,32.0,-100.00,SW,215,1.0,2.0,100,0.00,,,-99.99,,2013-03-09 07:21:00,
2013-03-09 00:31:00,32.0,32.0,-100.00,SW,215,1.0,2.0,100,0.00,,,-99.99,,2013-03-09 07:31:00,
2013-03-09 00:41:00,32.0,32.0,-100.00,East,99,0.0,1.0,100,0.00,,,-99.99,,2013-03-09 07:41:00,
2013-03-09 00:52:00,31.0,31.0,-100.00,South,182,2.0,2.0,100,0.00,,,-99.99,,2013-03-09 07:52:00,
2013-03-09 01:01:00,31.0,31.0,-100.00,South,182,2.0,2.0,100,0.00,,,-99.99,,2013-03-09 08:01:00,
2013-03-09 01:11:00,31.0,31.0,-100.00,WSW,243,2.0,2.0,100,0.00,,,-99.99,,2013-03-09 08:11:00,
2013-03-09 01:41:00,31.0,31.0,-100.00,SSW,203,2.0,2.0,100,0.00,,,-99.99,,2013-03-09 08:41:00,
2013-03-09 01:52:00,30.0,30.0,-100.00,SW,232,3.0,4.0,100,0.00,,,-99.99,,2013-03-09 08:52:00,
2013-03-09 02:01:00,30.0,30.0,-100.00,SW,232,3.0,4.0,100,0.00,,,-99.99,,2013-03-09 09:01:00,
2013-03-09 02:11:00,30.0,30.0,-100.00,SW,229,4.0,4.0,100,0.00,,,-99.99,,2013-03-09 09:11:00,
2013-03-09 02:21:00,30.0,30.0,-100.00,SW,229,4.0,4.0,100,0.00,,,-99.99,,2013-03-09 09:21:00,
2013-03-09 02:31:00,30.0,30.0,-100.00,SW,229,4.0,4.0,100,0.00,,,-99.99,,2013-03-09 09:31:00,
2013-03-09 02:41:00,31.0,31.0,-100.00,WSW,247,3.0,4.0,100,0.00,,,-99.99,,2013-03-09 09:41:00,
2013-03-09 02:52:00,30.0,30.0,-100.00,WSW,246,4.0,5.0,100,0.00,,,-99.99,,2013-03-09 09:52:00,
2013-03-09 03:01:00,30.0,30.0,-100.00,WSW,246,4.0,5.0,100,0.00,,,-99.99,,2013-03-09 10:01:00,
2013-03-09 03:11:00,30.0,30.0,-100.00,WSW,253,4.0,5.0,100,0.00,,,-99.99,,2013-03-09 10:11:00,
2013-03-09 03:21:00,30.0,30.0,-100.00,WSW,240,3.0,4.0,100,0.00,,,-99.99,,2013-03-09 10:21:00,
2013-03-09 03:31:00,30.0,30.0,-100.00,WSW,240,3.0,4.0,100,0.00,,,-99.99,,2013-03-09 10:31:00,
2013-03-09 03:41:00,30.0,30.0,-100.00,SW,233,4.0,4.0,100,0.00,,,-99.99,,2013-03-09 10:41:00,
2013-03-09 03:52:00,30.0,30.0,-100.00,SW,227,3.0,3.0,100,0.00,,,-99.99,,2013-03-09 10:52:00,
2013-03-09 04:01:00,30.0,30.0,-100.00,SW,227,3.0,3.0,100,0.00,,,-99.99,,2013-03-09 11:01:00,
2013-03-09 04:11:00,29.0,29.0,-100.00,WSW,240,3.0,4.0,99,0.00,,,-99.99,,2013-03-09 11:11:00,
2013-03-09 04:21:00,30.0,30.0,-100.00,SW,219,3.0,4.0,99,0.00,,,-99.99,,2013-03-09 11:21:00,
2013-03-09 04:31:00,30.0,30.0,-100.00,SW,219,3.0,4.0,99,0.00,,,-99.99,,2013-03-09 11:31:00,
2013-03-09 04:41:00,30.0,30.0,-100.00,WSW,248,2.0,4.0,98,0.00,,,-99.99,,2013-03-09 11:41:00,
2013-03-09 04:52:00,29.0,29.0,-100.00,SE,133,1.0,2.0,98,0.00,,,-99.99,,2013-03-09 11:52:00,
2013-03-09 05:01:00,29.0,29.0,-100.00,SE,133,1.0,2.0,98,0.00,,,-99.99,,2013-03-09 12:01:00,
2013-03-09 05:11:00,30.0,29.0,-100.00,ENE,76,0.0,1.0,98,0.00,,,-99.99,,2013-03-09 12:11:00,
2013-03-09 05:21:00,29.0,29.0,-100.00,ENE,76,2.0,2.0,98,0.00,,,-99.99,,2013-03-09 12:21:00,
2013-03-09 05:31:00,29.0,29.0,-100.00,ENE,76,2.0,2.0,98,0.00,,,-99.99,,2013-03-09 12:31:00,
2013-03-09 05:42:00,30.0,29.0,-100.00,SSE,164,1.0,2.0,98,0.00,,,-99.99,,2013-03-09 12:42:00,
2013-03-09 05:52:00,29.0,29.0,-100.00,SSE,164,0.0,1.0,99,0.00,,,-99.99,,2013-03-09 12:52:00,
2013-03-09 06:02:00,29.0,29.0,-100.00,SSE,164,0.0,1.0,99,0.00,,,-99.99,,2013-03-09 13:02:00,
2013-03-09 06:11:00,30.0,29.0,-100.00,SSE,164,1.0,2.0,98,0.00,,,-99.99,,2013-03-09 13:11:00,
2013-03-09 06:21:00,29.0,29.0,-100.00,SW,216,3.0,4.0,99,0.00,,,-99.99,,2013-03-09 13:21:00,
2013-03-09 06:31:00,29.0,29.0,-100.00,SW,216,3.0,4.0,99,0.00,,,-99.99,,2013-03-09 13:31:00,
2013-03-09 06:41:00,29.0,28.0,-100.00,SSW,212,3.0,4.0,98,0.00,,,-99.99,,2013-03-09 13:41:00,
2013-03-09 06:52:00,29.0,29.0,-100.00,SSW,213,5.0,6.0,98,0.00,,,-99.99,,2013-03-09 13:52:00,
2013-03-09 07:01:00,29.0,29.0,-100.00,SSW,213,5.0,6.0,98,0.00,,,-99.99,,2013-03-09 14:01:00,
2013-03-09 07:11:00,29.0,29.0,-100.00,SSW,213,5.0,6.0,98,0.00,,,-99.99,,2013-03-09 14:11:00,
2013-03-09 07:21:00,29.0,29.0,-100.00,SW,226,8.0,9.0,99,0.00,,,-99.99,,2013-03-09 14:21:00,
2013-03-09 07:31:00,29.0,29.0,-100.00,SW,226,8.0,9.0,99,0.00,,,-99.99,,2013-03-09 14:31:00,
2013-03-09 07:42:00,29.0,28.0,-100.00,SW,227,10.0,12.0,97,0.00,,,-99.99,,2013-03-09 14:42:00,
2013-03-09 07:52:00,29.0,28.0,-100.00,SW,220,9.0,14.0,95,0.00,,,-99.99,,2013-03-09 14:52:00,
2013-03-09 08:01:00,29.0,28.0,-100.00,SW,220,9.0,14.0,95,0.00,,,-99.99,,2013-03-09 15:01:00,
2013-03-09 08:11:00,29.0,28.0,-100.00,SW,220,9.0,14.0,95,0.00,,,-99.99,,2013-03-09 15:11:00,
2013-03-09 08:22:00,30.0,29.0,-100.00,SW,219,9.0,11.0,94,0.00,,,-99.99,,2013-03-09 15:22:00,
2013-03-09 08:31:00,30.0,29.0,-100.00,SW,219,9.0,11.0,94,0.00,,,-99.99,,2013-03-09 15:31:00,
2013-03-09 08:42:00,31.0,29.0,-100.00,SW,220,13.0,15.0,92,0.00,,,-99.99,,2013-03-09 15:42:00,
2013-03-09 08:52:00,31.0,29.0,-100.00,SW,216,14.0,17.0,91,0.00,,,-99.99,,2013-03-09 15:52:00,
2013-03-09 09:01:00,31.0,29.0,-100.00,SW,216,14.0,17.0,91,0.00,,,-99.99,,2013-03-09 16:01:00,
2013-03-09 09:11:00,32.0,29.0,-100.00,SW,220,12.0,14.0,91,0.00,,,-99.99,,2013-03-09 16:11:00,
2013-03-09 09:21:00,33.0,30.0,-100.00,SW,224,9.0,11.0,89,0.00,,,-99.99,,2013-03-09 16:21:00,
2013-03-09 09:31:00,33.0,30.0,-100.00,SW,224,9.0,11.0,89,0.00,,,-99.99,,2013-03-09 16:31:00,
2013-03-09 09:41:00,33.0,30.0,-100.00,SW,220,11.0,13.0,88,0.00,,,-99.99,,2013-03-09 16:41:00,
2013-03-09 09:52:00,34.0,30.0,-100.00,SW,220,11.0,14.0,87,0.00,,,-99.99,,2013-03-09 16:52:00,
2013-03-09 10:01:00,34.0,30.0,-100.00,SW,220,11.0,14.0,87,0.00,,,-99.99,,2013-03-09 17:01:00,
2013-03-09 10:11:00,35.0,30.0,-100.00,SW,220,12.0,15.0,84,0.00,,,-99.99,,2013-03-09 17:11:00,
2013-03-09 10:22:00,35.0,30.0,-100.00,SW,216,11.0,13.0,80,0.00,,,-99.99,,2013-03-09 17:22:00,
2013-03-09 10:32:00,35.0,30.0,-100.00,SW,216,11.0,13.0,80,0.00,,,-99.99,,2013-03-09 17:32:00,
2013-03-09 10:42:00,37.0,31.0,-100.00,SSW,213,10.0,12.0,81,0.00,,,-99.99,,2013-03-09 17:42:00,
2013-03-09 10:52:00,37.0,28.0,-100.00,WSW,254,7.0,9.0,69,0.00,,,-99.99,,2013-03-09 17:52:00,
2013-03-09 11:01:00,37.0,28.0,-100.00,WSW,254,7.0,9.0,69,0.00,,,-99.99,,2013-03-09 18:01:00,
2013-03-09 11:11:00,38.0,31.0,-100.00,WSW,244,11.0,13.0,74,0.00,,,-99.99,,2013-03-09 18:11:00,
2013-03-09 11:21:00,38.0,30.0,-100.00,WSW,237,11.0,14.0,73,0.00,,,-99.99,,2013-03-09 18:21:00,
2013-03-09 11:31:00,38.0,30.0,-100.00,WSW,237,11.0,14.0,73,0.00,,,-99.99,,2013-03-09 18:31:00,
2013-03-09 11:42:00,39.0,30.0,-100.00,WSW,246,11.0,14.0,71,0.00,,,-99.99,,2013-03-09 18:42:00,
2013-03-09 11:52:00,40.0,30.0,-100.00,SW,233,10.0,14.0,68,0.00,,,-99.99,,2013-03-09 18:52:00,
2013-03-09 12:01:00,40.0,30.0,-100.00,SW,233,10.0,14.0,68,0.00,,,-99.99,,2013-03-09 19:01:00,
2013-03-09 12:11:00,41.0,28.0,-100.00,SW,236,10.0,14.0,60,0.00,,,-99.99,,2013-03-09 19:11:00,
2013-03-09 12:22:00,41.0,29.0,-100.00,WSW,247,9.0,14.0,62,0.00,,,-99.99,,2013-03-09 19:22:00,
2013-03-09 12:31:00,41.0,29.0,-100.00,WSW,247,9.0,14.0,62,0.00,,,-99.99,,2013-03-09 19:31:00,
2013-03-09 12:41:00,41.0,29.0,-100.00,West,261,8.0,10.0,60,0.00,,,-99.99,,2013-03-09 19:41:00,
2013-03-09 12:52:00,42.0,29.0,-100.00,West,265,8.0,9.0,58,0.00,,,-99.99,,2013-03-09 19:52:00,
2013-03-09 13:01:00,42.0,29.0,-100.00,West,265,8.0,9.0,58,0.00,,,-99.99,,2013-03-09 20:01:00,
2013-03-09 13:11:00,43.0,28.0,-100.00,West,261,7.0,11.0,56,0.00,,,-99.99,,2013-03-09 20:11:00,
2013-03-09 13:21:00,43.0,28.0,-100.00,West,261,7.0,11.0,56,0.00,,,-99.99,,2013-03-09 20:21:00,
2013-03-09 13:41:00,43.0,29.0,-100.00,WSW,251,8.0,13.0,56,0.00,,,-99.99,,2013-03-09 20:41:00,
2013-03-09 13:52:00,44.0,25.0,-100.00,NNW,328,5.0,9.0,48,0.00,,,-99.99,,2013-03-09 20:52:00,
2013-03-09 14:01:00,44.0,25.0,-100.00,NNW,328,5.0,9.0,48,0.00,,,-99.99,,2013-03-09 21:01:00,
2013-03-09 14:11:00,45.0,25.0,-100.00,NW,308,7.0,9.0,47,0.00,,,-99.99,,2013-03-09 21:11:00,
2013-03-09 14:21:00,45.0,23.0,-100.00,NNW,333,6.0,9.0,41,0.00,,,-99.99,,2013-03-09 21:21:00,
2013-03-09 14:31:00,45.0,23.0,-100.00,NNW,333,6.0,9.0,41,0.00,,,-99.99,,2013-03-09 21:31:00,
2013-03-09 14:41:00,46.0,23.0,-100.00,North,352,9.0,11.0,39,0.00,,,-99.99,,2013-03-09 21:41:00,
2013-03-09 14:52:00,46.0,21.0,-100.00,NNW,342,8.0,11.0,38,0.00,,,-99.99,,2013-03-09 21:52:00,
2013-03-09 15:01:00,46.0,21.0,-100.00,NNW,342,8.0,11.0,38,0.00,,,-99.99,,2013-03-09 22:01:00,
2013-03-09 15:11:00,47.0,24.0,-100.00,NW,322,9.0,11.0,40,0.00,,,-99.99,,2013-03-09 22:11:00,
2013-03-09 15:21:00,47.0,24.0,-100.00,North,1,16.0,19.0,40,0.00,,,-99.99,,2013-03-09 22:21:00,
2013-03-09 15:32:00,47.0,24.0,-100.00,North,1,16.0,19.0,40,0.00,,,-99.99,,2013-03-09 22:32:00,
2013-03-09 15:41:00,46.0,22.0,-100.00,North,360,12.0,15.0,37,0.00,,,-99.99,,2013-03-09 22:41:00,
2013-03-09 15:52:00,46.0,22.0,-100.00,North,360,12.0,15.0,37,0.00,,,-99.99,,2013-03-09 22:52:00,
2013-03-09 16:01:00,46.0,23.0,-100.00,North,349,15.0,17.0,40,0.00,,,-99.99,,2013-03-09 23:01:00,
2013-03-09 16:11:00,46.0,26.0,-100.00,North,354,15.0,17.0,45,0.00,,,-99.99,,2013-03-09 23:11:00,
2013-03-09 16:21:00,46.0,25.0,-100.00,North,353,12.0,17.0,42,0.00,,,-99.99,,2013-03-09 23:21:00,
2013-03-09 16:31:00,46.0,25.0,-100.00,North,353,12.0,17.0,42,0.00,,,-99.99,,2013-03-09 23:31:00,
2013-03-09 16:41:00,46.0,22.0,-100.00,NNE,16,13.0,15.0,38,0.00,,,-99.99,,2013-03-09 23:41:00,
2013-03-09 16:52:00,47.0,26.0,-100.00,North,3,9.0,11.0,43,0.00,,,-99.99,,2013-03-09 23:52:00,
2013-03-09 17:01:00,47.0,26.0,-100.00,North,3,9.0,11.0,43,0.00,,,-99.99,,2013-03-10 00:01:00,
2013-03-09 17:11:00,46.0,25.0,-100.00,North,7,9.0,12.0,44,0.00,,,-99.99,,2013-03-10 00:11:00,
2013-03-09 17:22:00,46.0,27.0,-100.00,NNW,347,10.0,12.0,47,0.00,,,-99.99,,2013-03-10 00:22:00,
2013-03-09 17:31:00,46.0,27.0,-100.00,NNW,347,10.0,12.0,47,0.00,,,-99.99,,2013-03-10 00:31:00,
2013-03-09 17:42:00,46.0,26.0,-100.00,North,0,8.0,12.0,44,0.00,,,-99.99,,2013-03-10 00:42:00,
2013-03-09 17:52:00,45.0,27.0,-100.00,North,7,10.0,12.0,47,0.00,,,-99.99,,2013-03-10 00:52:00,
2013-03-09 18:01:00,45.0,27.0,-100.00,North,7,10.0,12.0,47,0.00,,,-99.99,,2013-03-10 01:01:00,
2013-03-09 18:11:00,45.0,26.0,-100.00,NNE,13,8.0,11.0,48,0.00,,,-99.99,,2013-03-10 01:11:00,
2013-03-09 18:21:00,44.0,26.0,-100.00,NNE,16,6.0,9.0,49,0.00,,,-99.99,,2013-03-10 01:21:00,
2013-03-09 18:31:00,44.0,26.0,-100.00,NNE,16,6.0,9.0,49,0.00,,,-99.99,,2013-03-10 01:31:00,
2013-03-09 18:41:00,43.0,26.0,-100.00,NE,41,6.0,7.0,51,0.00,,,-99.99,,2013-03-10 01:41:00,
2013-03-09 18:52:00,41.0,26.0,-100.00,NE,49,4.0,5.0,55,0.00,,,-99.99,,2013-03-10 01:52:00,
2013-03-09 19:01:00,41.0,26.0,-100.00,NE,49,4.0,5.0,55,0.00,,,-99.99,,2013-03-10 02:01:00,
2013-03-09 19:11:00,41.0,26.0,-100.00,NE,42,4.0,5.0,54,0.00,,,-99.99,,2013-03-10 02:11:00,
2013-03-09 19:22:00,40.0,25.0,-100.00,NE,37,4.0,5.0,54,0.00,,,-99.99,,2013-03-10 02:22:00,
2013-03-09 19:31:00,40.0,25.0,-100.00,NE,37,4.0,5.0,54,0.00,,,-99.99,,2013-03-10 02:31:00,
2013-03-09 19:41:00,40.0,25.0,-100.00,NE,35,3.0,4.0,54,0.00,,,-99.99,,2013-03-10 02:41:00,
2013-03-09 19:52:00,39.0,26.0,-100.00,North,353,1.0,2.0,57,0.00,,,-99.99,,2013-03-10 02:52:00,
2013-03-09 20:01:00,39.0,26.0,-100.00,North,353,1.0,2.0,57,0.00,,,-99.99,,2013-03-10 03:01:00,
2013-03-09 20:11:00,37.0,26.0,-100.00,SW,230,1.0,2.0,64,0.00,,,-99.99,,2013-03-10 03:11:00,
2013-03-09 20:21:00,37.0,26.0,-100.00,SW,230,1.0,2.0,64,0.00,,,-99.99,,2013-03-10 03:21:00,
2013-03-09 20:31:00,35.0,28.0,-100.00,SSW,192,2.0,2.0,74,0.00,,,-99.99,,2013-03-10 03:31:00,
2013-03-09 20:42:00,36.0,27.0,-100.00,WNW,282,0.0,1.0,67,0.00,,,-99.99,,2013-03-10 03:42:00,
2013-03-09 20:52:00,37.0,26.0,-100.00,North,1,1.0,2.0,65,0.00,,,-99.99,,2013-03-10 03:52:00,
2013-03-09 21:01:00,37.0,26.0,-100.00,North,1,1.0,2.0,65,0.00,,,-99.99,,2013-03-10 04:01:00,
2013-03-09 21:11:00,36.0,26.0,-100.00,NNE,30,2.0,3.0,68,0.00,,,-99.99,,2013-03-10 04:11:00,
2013-03-09 21:21:00,37.0,26.0,-100.00,NE,41,2.0,3.0,65,0.00,,,-99.99,,2013-03-10 04:21:00,
2013-03-09 21:31:00,37.0,26.0,-100.00,NE,41,2.0,3.0,65,0.00,,,-99.99,,2013-03-10 04:31:00,
2013-03-09 21:41:00,34.0,28.0,-100.00,SE,140,4.0,4.0,78,0.00,,,-99.99,,2013-03-10 04:41:00,
2013-03-09 21:52:00,34.0,28.0,-100.00,SE,140,4.0,4.0,78,0.00,,,-99.99,,2013-03-10 04:52:00,
2013-03-09 22:01:00,34.0,28.0,-100.00,SE,140,4.0,4.0,78,0.00,,,-99.99,,2013-03-10 05:01:00,
2013-03-09 22:11:00,32.0,29.0,-100.00,SSE,147,3.0,3.0,87,0.00,,,-99.99,,2013-03-10 05:11:00,
2013-03-09 22:21:00,32.0,29.0,-100.00,South,185,2.0,3.0,88,0.00,,,-99.99,,2013-03-10 05:21:00,
2013-03-09 22:31:00,32.0,29.0,-100.00,South,185,2.0,3.0,88,0.00,,,-99.99,,2013-03-10 05:31:00,
2013-03-09 22:42:00,32.0,28.0,-100.00,SE,124,5.0,6.0,85,0.00,,,-99.99,,2013-03-10 05:42:00,
2013-03-09 22:52:00,35.0,27.0,-100.00,ESE,116,2.0,2.0,72,0.00,,,-99.99,,2013-03-10 05:52:00,
2013-03-09 23:01:00,35.0,27.0,-100.00,ESE,116,2.0,2.0,72,0.00,,,-99.99,,2013-03-10 06:01:00,
2013-03-09 23:11:00,31.0,28.0,-100.00,SE,133,5.0,6.0,87,0.00,,,-99.99,,2013-03-10 06:11:00,
2013-03-09 23:21:00,31.0,28.0,-100.00,SW,219,5.0,6.0,90,0.00,,,-99.99,,2013-03-10 06:21:00,
2013-03-09 23:31:00,31.0,28.0,-100.00,SW,219,5.0,6.0,90,0.00,,,-99.99,,2013-03-10 06:31:00,
2013-03-09 23:41:00,33.0,29.0,-100.00,SSW,206,5.0,6.0,83,0.00,,,-99.99,,2013-03-10 06:41:00,
2013-03-09 23:52:00,34.0,28.0,-100.00,SW,217,6.0,7.0,81,0.00,,,-99.99,,2013-03-10 06:52:00,